sensor_id;sensor_type;location;lat;lon;timestamp;temperature;humidity
45315;SHT31;31051;51.540;5.852;2023-05-29T08:10:41;15.7;55.7
45315;SHT31;31051;51.540;5.852;2023-05-29T08:23:40;16.2;57.6
45315;SHT31;31051;51.540;5.852;2023-05-29T08:36:40;16.6;55.9
45315;SHT31;31051;51.540;5.852;2023-05-29T08:49:39;15.9;57.0
45315;SHT31;31051;51.540;5.852;2023-05-29T09:02:39;16.0;56.6
45315;SHT31;31051;51.540;5.852;2023-05-29T09:15:38;15.8;57.1
45315;SHT31;31051;51.540;5.852;2023-05-29T09:28:37;16.6;54.8
45315;SHT31;31051;51.540;5.852;2023-05-29T09:41:37;17.6;52.2
45315;SHT31;31051;51.540;5.852;2023-05-29T09:54:35;17.7;52.4
45315;SHT31;31051;51.540;5.852;2023-05-29T10:07:24;18.4;52.3
45315;SHT31;31051;51.540;5.852;2023-05-29T10:20:23;18.5;50.7
45315;SHT31;31051;51.540;5.852;2023-05-29T10:33:12;18.3;51.2
45315;SHT31;31051;51.540;5.852;2023-05-29T10:46:11;18.9;50.2
45315;SHT31;31051;51.540;5.852;2023-05-29T10:59:00;18.2;50.6
45315;SHT31;31051;51.540;5.852;2023-05-29T11:11:59;19.1;49.0
45315;SHT31;31051;51.540;5.852;2023-05-29T11:24:59;18.5;50.3
45315;SHT31;31051;51.540;5.852;2023-05-29T11:37:58;18.7;50.2
45315;SHT31;31051;51.540;5.852;2023-05-29T11:50:58;18.8;49.7
45315;SHT31;31051;51.540;5.852;2023-05-29T12:03:57;18.4;50.4
45315;SHT31;31051;51.540;5.852;2023-05-29T12:16:57;18.7;50.1
45315;SHT31;31051;51.540;5.852;2023-05-29T12:29:56;19.0;50.6
45315;SHT31;31051;51.540;5.852;2023-05-29T12:42:54;19.4;48.6
45315;SHT31;31051;51.540;5.852;2023-05-29T12:55:43;19.2;48.4
45315;SHT31;31051;51.540;5.852;2023-05-29T13:08:31;19.4;46.1
45315;SHT31;31051;51.540;5.852;2023-05-29T13:21:20;19.6;45.3
45315;SHT31;31051;51.540;5.852;2023-05-29T13:34:19;19.7;45.0
45315;SHT31;31051;51.540;5.852;2023-05-29T13:47:07;20.3;43.0
45315;SHT31;31051;51.540;5.852;2023-05-29T13:59:56;19.8;43.2
45315;SHT31;31051;51.540;5.852;2023-05-29T14:12:44;19.7;41.0
45315;SHT31;31051;51.540;5.852;2023-05-29T14:25:32;20.0;41.4
45315;SHT31;31051;51.540;5.852;2023-05-29T14:38:22;19.6;40.6
45315;SHT31;31051;51.540;5.852;2023-05-29T14:51:20;19.9;41.4
45315;SHT31;31051;51.540;5.852;2023-05-29T15:04:09;20.0;41.4
45315;SHT31;31051;51.540;5.852;2023-05-29T15:16:58;19.9;41.0
45315;SHT31;31051;51.540;5.852;2023-05-29T15:29:57;20.0;41.2
45315;SHT31;31051;51.540;5.852;2023-05-29T15:42:57;20.6;37.6
45315;SHT31;31051;51.540;5.852;2023-05-29T15:55:56;20.0;39.5
45315;SHT31;31051;51.540;5.852;2023-05-29T16:08:55;19.8;40.6
45315;SHT31;31051;51.540;5.852;2023-05-29T16:21:43;20.0;40.0
45315;SHT31;31051;51.540;5.852;2023-05-29T16:34:32;20.0;41.1
45315;SHT31;31051;51.540;5.852;2023-05-29T16:47:32;19.8;41.7
45315;SHT31;31051;51.540;5.852;2023-05-29T17:00:30;19.8;41.8
45315;SHT31;31051;51.540;5.852;2023-05-29T17:13:19;19.7;39.8
45315;SHT31;31051;51.540;5.852;2023-05-29T17:26:08;19.5;40.3
45315;SHT31;31051;51.540;5.852;2023-05-29T17:39:07;19.3;39.2
45315;SHT31;31051;51.540;5.852;2023-05-29T17:52:07;19.0;39.7
45315;SHT31;31051;51.540;5.852;2023-05-29T18:05:06;18.7;40.2
45315;SHT31;31051;51.540;5.852;2023-05-29T18:18:06;18.5;40.7
45315;SHT31;31051;51.540;5.852;2023-05-29T18:31:05;18.5;40.2
45315;SHT31;31051;51.540;5.852;2023-05-29T18:44:05;18.2;38.9
45315;SHT31;31051;51.540;5.852;2023-05-29T18:57:04;17.5;39.9
45315;SHT31;31051;51.540;5.852;2023-05-29T19:10:03;17.0;42.4
45315;SHT31;31051;51.540;5.852;2023-05-29T19:23:03;16.6;44.3
45315;SHT31;31051;51.540;5.852;2023-05-29T19:36:02;15.7;45.6
45315;SHT31;31051;51.540;5.852;2023-05-29T19:49:02;15.2;46.4
45315;SHT31;31051;51.540;5.852;2023-05-29T20:02:01;14.7;47.1
45315;SHT31;31051;51.540;5.852;2023-05-29T20:15:00;14.4;46.9
45315;SHT31;31051;51.540;5.852;2023-05-29T20:28:00;14.0;48.1
45315;SHT31;31051;51.540;5.852;2023-05-29T20:40:59;13.6;51.7
45315;SHT31;31051;51.540;5.852;2023-05-29T20:53:59;13.4;54.6
45315;SHT31;31051;51.540;5.852;2023-05-29T21:06:58;13.0;56.4
45315;SHT31;31051;51.540;5.852;2023-05-29T21:19:57;12.6;58.8
45315;SHT31;31051;51.540;5.852;2023-05-29T21:32:57;12.4;59.9
45315;SHT31;31051;51.540;5.852;2023-05-29T21:45:56;12.2;61.1
45315;SHT31;31051;51.540;5.852;2023-05-29T21:58:55;11.9;62.7
45315;SHT31;31051;51.540;5.852;2023-05-29T22:11:55;11.7;63.2
45315;SHT31;31051;51.540;5.852;2023-05-29T22:37:53;11.2;66.4
45315;SHT31;31051;51.540;5.852;2023-05-29T22:50:52;11.0;68.1
45315;SHT31;31051;51.540;5.852;2023-05-29T23:03:52;10.8;69.3
45315;SHT31;31051;51.540;5.852;2023-05-29T23:16:51;10.6;70.9
45315;SHT31;31051;51.540;5.852;2023-05-29T23:29:50;10.4;72.2
45315;SHT31;31051;51.540;5.852;2023-05-29T23:42:50;10.2;73.5
45315;SHT31;31051;51.540;5.852;2023-05-29T23:55:49;10.0;73.8
